sensor_id;sensor_type;location;lat;lon;timestamp;pressure;altitude;pressure_sealevel;temperature;humidity
21960;BME280;11144;43.030;25.108;2023-05-10T00:01:21;99687.69;;;11.10;100.00
21960;BME280;11144;43.030;25.108;2023-05-10T00:02:55;99684.97;;;11.12;100.00
21960;BME280;11144;43.030;25.108;2023-05-10T00:04:27;99681.31;;;11.16;100.00
21960;BME280;11144;43.030;25.108;2023-05-10T00:06:01;99684.00;;;11.14;100.00
21960;BME280;11144;43.030;25.108;2023-05-10T00:07:34;99685.72;;;11.15;100.00
21960;BME280;11144;43.030;25.108;2023-05-10T00:09:07;99685.72;;;11.15;100.00
21960;BME280;11144;43.030;25.108;2023-05-10T00:10:41;99680.44;;;11.15;100.00
21960;BME280;11144;43.030;25.108;2023-05-10T00:12:14;99676.94;;;11.15;100.00
21960;BME280;11144;43.030;25.108;2023-05-10T00:13:47;99675.25;;;11.12;100.00
21960;BME280;11144;43.030;25.108;2023-05-10T00:15:20;99674.41;;;11.12;100.00
21960;BME280;11144;43.030;25.108;2023-05-10T00:16:54;99680.53;;;11.12;100.00
21960;BME280;11144;43.030;25.108;2023-05-10T00:18:27;99688.38;;;11.15;100.00
21960;BME280;11144;43.030;25.108;2023-05-10T00:20:00;99691.03;;;11.15;100.00
21960;BME280;11144;43.030;25.108;2023-05-10T00:21:33;99674.31;;;11.15;100.00
21960;BME280;11144;43.030;25.108;2023-05-10T00:23:06;99673.34;;;11.17;100.00
21960;BME280;11144;43.030;25.108;2023-05-10T00:24:39;99676.91;;;11.16;100.00
21960;BME280;11144;43.030;25.108;2023-05-10T00:26:12;99676.91;;;11.16;100.00
21960;BME280;11144;43.030;25.108;2023-05-10T00:27:49;99676.78;;;11.19;100.00
21960;BME280;11144;43.030;25.108;2023-05-10T00:29:22;99673.34;;;11.17;100.00
21960;BME280;11144;43.030;25.108;2023-05-10T00:30:55;99677.75;;;11.17;100.00
21960;BME280;11144;43.030;25.108;2023-05-10T00:32:29;99671.59;;;11.16;100.00
21960;BME280;11144;43.030;25.108;2023-05-10T00:34:03;99669.84;;;11.15;100.00
21960;BME280;11144;43.030;25.108;2023-05-10T00:35:36;99664.59;;;11.14;100.00
21960;BME280;11144;43.030;25.108;2023-05-10T00:37:09;99664.56;;;11.15;100.00
21960;BME280;11144;43.030;25.108;2023-05-10T00:38:42;99669.75;;;11.18;100.00
21960;BME280;11144;43.030;25.108;2023-05-10T00:40:16;99660.91;;;11.19;100.00
21960;BME280;11144;43.030;25.108;2023-05-10T00:41:53;99667.94;;;11.20;100.00
21960;BME280;11144;43.030;25.108;2023-05-10T00:43:27;99666.09;;;11.22;100.00
21960;BME280;11144;43.030;25.108;2023-05-10T00:45:00;99655.47;;;11.24;100.00
21960;BME280;11144;43.030;25.108;2023-05-10T00:46:34;99661.69;;;11.23;100.00
21960;BME280;11144;43.030;25.108;2023-05-10T00:48:09;99659.06;;;11.21;100.00
21960;BME280;11144;43.030;25.108;2023-05-10T00:49:43;99658.97;;;11.24;100.00
21960;BME280;11144;43.030;25.108;2023-05-10T00:51:16;99666.00;;;11.25;100.00
21960;BME280;11144;43.030;25.108;2023-05-10T00:52:50;99658.94;;;11.26;100.00
21960;BME280;11144;43.030;25.108;2023-05-10T00:54:23;99653.69;;;11.24;100.00
21960;BME280;11144;43.030;25.108;2023-05-10T00:55:57;99660.94;;;11.18;100.00
21960;BME280;11144;43.030;25.108;2023-05-10T00:57:31;99655.81;;;11.13;100.00
21960;BME280;11144;43.030;25.108;2023-05-10T00:59:04;99648.03;;;11.09;100.00
21960;BME280;11144;43.030;25.108;2023-05-10T01:00:41;99654.19;;;11.09;100.00
21960;BME280;11144;43.030;25.108;2023-05-10T01:02:15;99648.06;;;11.07;100.00
21960;BME280;11144;43.030;25.108;2023-05-10T01:03:50;99649.00;;;11.06;100.00
21960;BME280;11144;43.030;25.108;2023-05-10T01:05:24;99644.78;;;11.01;100.00
21960;BME280;11144;43.030;25.108;2023-05-10T01:06:57;99650.91;;;11.01;100.00
21960;BME280;11144;43.030;25.108;2023-05-10T01:08:31;99652.66;;;11.02;100.00
21960;BME280;11144;43.030;25.108;2023-05-10T01:10:05;99643.03;;;11.00;100.00
21960;BME280;11144;43.030;25.108;2023-05-10T01:11:40;99643.88;;;11.00;100.00
21960;BME280;11144;43.030;25.108;2023-05-10T01:13:18;99638.59;;;11.00;100.00
21960;BME280;11144;43.030;25.108;2023-05-10T01:14:56;99642.97;;;11.01;100.00
21960;BME280;11144;43.030;25.108;2023-05-10T01:16:32;99645.63;;;11.01;100.00
21960;BME280;11144;43.030;25.108;2023-05-10T01:18:08;99645.53;;;11.04;100.00
21960;BME280;11144;43.030;25.108;2023-05-10T01:19:43;99639.63;;;10.96;100.00
21960;BME280;11144;43.030;25.108;2023-05-10T01:21:22;99643.97;;;10.97;100.00
21960;BME280;11144;43.030;25.108;2023-05-10T01:23:28;99633.53;;;10.94;100.00
21960;BME280;11144;43.030;25.108;2023-05-10T01:25:24;99643.22;;;10.94;100.00
21960;BME280;11144;43.030;25.108;2023-05-10T01:27:18;99636.97;;;10.96;100.00
21960;BME280;11144;43.030;25.108;2023-05-10T01:29:18;99638.69;;;10.97;100.00
21960;BME280;11144;43.030;25.108;2023-05-10T01:33:01;99635.16;;;10.98;100.00
21960;BME280;11144;43.030;25.108;2023-05-10T01:34:55;99643.13;;;10.97;100.00
21960;BME280;11144;43.030;25.108;2023-05-10T01:36:37;99640.44;;;10.98;100.00
21960;BME280;11144;43.030;25.108;2023-05-10T01:38:33;99642.34;;;10.93;100.00
21960;BME280;11144;43.030;25.108;2023-05-10T01:40:17;99635.34;;;10.92;100.00
21960;BME280;11144;43.030;25.108;2023-05-10T01:41:55;99632.78;;;10.89;100.00
21960;BME280;11144;43.030;25.108;2023-05-10T01:43:33;99629.34;;;10.87;100.00
21960;BME280;11144;43.030;25.108;2023-05-10T01:45:14;99619.66;;;10.86;100.00
21960;BME280;11144;43.030;25.108;2023-05-10T01:46:54;99623.22;;;10.85;100.00
21960;BME280;11144;43.030;25.108;2023-05-10T01:48:33;99608.38;;;10.81;100.00
21960;BME280;11144;43.030;25.108;2023-05-10T01:50:10;99619.97;;;10.77;100.00
21960;BME280;11144;43.030;25.108;2023-05-10T01:51:50;99618.25;;;10.76;100.00
21960;BME280;11144;43.030;25.108;2023-05-10T01:53:27;99608.56;;;10.75;100.00
21960;BME280;11144;43.030;25.108;2023-05-10T01:55:05;99617.47;;;10.73;100.00
21960;BME280;11144;43.030;25.108;2023-05-10T01:56:40;99614.06;;;10.69;100.00
21960;BME280;11144;43.030;25.108;2023-05-10T01:58:19;99610.59;;;10.67;100.00
21960;BME280;11144;43.030;25.108;2023-05-10T01:59:54;99605.47;;;10.63;100.00
21960;BME280;11144;43.030;25.108;2023-05-10T02:01:28;99607.13;;;10.65;100.00
21960;BME280;11144;43.030;25.108;2023-05-10T02:03:05;99603.00;;;10.57;100.00
21960;BME280;11144;43.030;25.108;2023-05-10T02:04:43;99602.13;;;10.56;100.00
21960;BME280;11144;43.030;25.108;2023-05-10T02:06:18;99602.22;;;10.53;100.00
21960;BME280;11144;43.030;25.108;2023-05-10T02:07:53;99611.06;;;10.52;100.00
21960;BME280;11144;43.030;25.108;2023-05-10T02:09:28;99603.13;;;10.52;100.00
21960;BME280;11144;43.030;25.108;2023-05-10T02:11:03;99604.84;;;10.53;100.00
21960;BME280;11144;43.030;25.108;2023-05-10T02:12:41;99603.34;;;10.46;100.00
21960;BME280;11144;43.030;25.108;2023-05-10T02:14:15;99605.16;;;10.44;100.00
21960;BME280;11144;43.030;25.108;2023-05-10T02:15:50;99605.31;;;10.38;100.00
21960;BME280;11144;43.030;25.108;2023-05-10T02:17:24;99603.69;;;10.34;100.00
21960;BME280;11144;43.030;25.108;2023-05-10T02:18:59;99603.59;;;10.37;100.00
21960;BME280;11144;43.030;25.108;2023-05-10T02:20:36;99608.00;;;10.36;100.00
21960;BME280;11144;43.030;25.108;2023-05-10T02:22:10;99597.56;;;10.33;100.00
21960;BME280;11144;43.030;25.108;2023-05-10T02:23:45;99591.47;;;10.30;100.00
21960;BME280;11144;43.030;25.108;2023-05-10T02:25:19;99606.50;;;10.29;100.00
21960;BME280;11144;43.030;25.108;2023-05-10T02:26:54;99597.78;;;10.26;100.00
21960;BME280;11144;43.030;25.108;2023-05-10T02:28:29;99604.78;;;10.27;100.00
21960;BME280;11144;43.030;25.108;2023-05-10T02:30:05;99606.53;;;10.28;100.00
21960;BME280;11144;43.030;25.108;2023-05-10T02:31:40;99603.91;;;10.28;100.00
21960;BME280;11144;43.030;25.108;2023-05-10T02:33:15;99613.50;;;10.30;100.00
21960;BME280;11144;43.030;25.108;2023-05-10T02:34:50;99594.97;;;10.32;100.00
21960;BME280;11144;43.030;25.108;2023-05-10T02:36:27;99607.25;;;10.33;100.00
21960;BME280;11144;43.030;25.108;2023-05-10T02:38:01;99608.97;;;10.34;100.00
21960;BME280;11144;43.030;25.108;2023-05-10T02:39:34;99602.84;;;10.33;100.00
21960;BME280;11144;43.030;25.108;2023-05-10T02:41:08;99596.78;;;10.30;100.00
21960;BME280;11144;43.030;25.108;2023-05-10T02:42:44;99597.66;;;10.30;100.00
21960;BME280;11144;43.030;25.108;2023-05-10T02:44:19;99604.63;;;10.33;100.00
21960;BME280;11144;43.030;25.108;2023-05-10T02:45:53;99602.94;;;10.30;100.00
21960;BME280;11144;43.030;25.108;2023-05-10T02:47:26;99600.34;;;10.29;100.00
21960;BME280;11144;43.030;25.108;2023-05-10T02:48:59;99603.91;;;10.28;100.00
21960;BME280;11144;43.030;25.108;2023-05-10T02:50:33;99600.41;;;10.26;100.00
21960;BME280;11144;43.030;25.108;2023-05-10T02:52:10;99611.19;;;10.20;100.00
21960;BME280;11144;43.030;25.108;2023-05-10T02:53:44;99600.72;;;10.17;100.00
21960;BME280;11144;43.030;25.108;2023-05-10T02:55:21;99605.91;;;10.20;100.00
21960;BME280;11144;43.030;25.108;2023-05-10T02:56:57;99607.63;;;10.21;100.00
21960;BME280;11144;43.030;25.108;2023-05-10T02:58:30;99597.06;;;10.21;100.00
21960;BME280;11144;43.030;25.108;2023-05-10T03:00:04;99602.44;;;10.18;100.00
21960;BME280;11144;43.030;25.108;2023-05-10T03:01:37;99598.88;;;10.19;100.00
21960;BME280;11144;43.030;25.108;2023-05-10T03:03:11;99608.47;;;10.21;100.00
21960;BME280;11144;43.030;25.108;2023-05-10T03:04:43;99604.06;;;10.22;100.00
21960;BME280;11144;43.030;25.108;2023-05-10T03:06:17;99611.91;;;10.25;100.00
21960;BME280;11144;43.030;25.108;2023-05-10T03:07:52;99614.56;;;10.25;100.00
21960;BME280;11144;43.030;25.108;2023-05-10T03:09:24;99611.19;;;10.20;100.00
21960;BME280;11144;43.030;25.108;2023-05-10T03:11:09;99607.53;;;10.24;100.00
21960;BME280;11144;43.030;25.108;2023-05-10T03:13:00;99600.63;;;10.20;100.00
21960;BME280;11144;43.030;25.108;2023-05-10T03:14:45;99602.44;;;10.18;100.00
21960;BME280;11144;43.030;25.108;2023-05-10T03:16:25;99600.72;;;10.17;100.00
21960;BME280;11144;43.030;25.108;2023-05-10T03:18:04;99589.25;;;10.16;100.00
21960;BME280;11144;43.030;25.108;2023-05-10T03:19:44;99591.94;;;10.15;100.00
21960;BME280;11144;43.030;25.108;2023-05-10T03:21:20;99589.34;;;10.13;100.00
21960;BME280;11144;43.030;25.108;2023-05-10T03:23:04;99581.38;;;10.15;100.00
21960;BME280;11144;43.030;25.108;2023-05-10T03:24:41;99578.81;;;10.12;100.00
21960;BME280;11144;43.030;25.108;2023-05-10T03:26:18;99594.59;;;10.15;100.00
21960;BME280;11144;43.030;25.108;2023-05-10T03:27:54;99596.38;;;10.14;100.00
21960;BME280;11144;43.030;25.108;2023-05-10T03:29:31;99605.13;;;10.16;100.00
21960;BME280;11144;43.030;25.108;2023-05-10T03:31:05;99601.50;;;10.19;100.00
21960;BME280;11144;43.030;25.108;2023-05-10T03:32:39;99604.34;;;10.13;100.00
21960;BME280;11144;43.030;25.108;2023-05-10T03:34:13;99606.88;;;10.16;100.00
21960;BME280;11144;43.030;25.108;2023-05-10T03:35:47;99597.31;;;10.12;100.00
21960;BME280;11144;43.030;25.108;2023-05-10T03:37:21;99604.16;;;10.19;100.00
21960;BME280;11144;43.030;25.108;2023-05-10T03:38:55;99614.63;;;10.22;100.00
21960;BME280;11144;43.030;25.108;2023-05-10T03:40:29;99612.91;;;10.21;100.00
21960;BME280;11144;43.030;25.108;2023-05-10T03:42:04;99612.03;;;10.20;100.00
21960;BME280;11144;43.030;25.108;2023-05-10T03:43:36;99607.53;;;10.24;100.00
21960;BME280;11144;43.030;25.108;2023-05-10T03:45:11;99605.72;;;10.26;100.00
21960;BME280;11144;43.030;25.108;2023-05-10T03:46:43;99612.63;;;10.30;100.00
21960;BME280;11144;43.030;25.108;2023-05-10T03:48:17;99611.88;;;10.26;100.00
21960;BME280;11144;43.030;25.108;2023-05-10T03:49:50;99609.28;;;10.25;100.00
21960;BME280;11144;43.030;25.108;2023-05-10T03:51:22;99611.00;;;10.26;100.00
21960;BME280;11144;43.030;25.108;2023-05-10T03:52:59;99613.41;;;10.33;100.00
21960;BME280;11144;43.030;25.108;2023-05-10T03:54:35;99614.25;;;10.34;100.00
21960;BME280;11144;43.030;25.108;2023-05-10T03:56:09;99619.47;;;10.37;100.00
21960;BME280;11144;43.030;25.108;2023-05-10T03:57:42;99615.09;;;10.36;100.00
21960;BME280;11144;43.030;25.108;2023-05-10T03:59:16;99616.88;;;10.35;100.00
21960;BME280;11144;43.030;25.108;2023-05-10T04:00:50;99620.34;;;10.38;100.00
21960;BME280;11144;43.030;25.108;2023-05-10T04:02:24;99622.94;;;10.39;100.00
21960;BME280;11144;43.030;25.108;2023-05-10T04:03:57;99625.34;;;10.47;100.00
21960;BME280;11144;43.030;25.108;2023-05-10T04:05:31;99624.50;;;10.46;100.00
21960;BME280;11144;43.030;25.108;2023-05-10T04:07:04;99622.72;;;10.45;100.00
21960;BME280;11144;43.030;25.108;2023-05-10T04:08:36;99614.81;;;10.45;100.00
21960;BME280;11144;43.030;25.108;2023-05-10T04:10:11;99623.53;;;10.49;100.00
21960;BME280;11144;43.030;25.108;2023-05-10T04:11:43;99619.00;;;10.52;100.00
21960;BME280;11144;43.030;25.108;2023-05-10T04:13:17;99622.47;;;10.54;100.00
21960;BME280;11144;43.030;25.108;2023-05-10T04:14:50;99621.63;;;10.52;100.00
21960;BME280;11144;43.030;25.108;2023-05-10T04:16:24;99619.91;;;10.51;100.00
21960;BME280;11144;43.030;25.108;2023-05-10T04:17:56;99627.75;;;10.54;100.00
21960;BME280;11144;43.030;25.108;2023-05-10T04:19:30;99618.16;;;10.52;100.00
21960;BME280;11144;43.030;25.108;2023-05-10T04:21:03;99616.22;;;10.57;100.00
21960;BME280;11144;43.030;25.108;2023-05-10T04:22:36;99622.09;;;10.66;100.00
21960;BME280;11144;43.030;25.108;2023-05-10T04:24:10;99606.97;;;10.70;100.00
21960;BME280;11144;43.030;25.108;2023-05-10T04:25:45;99614.84;;;10.71;100.00
21960;BME280;11144;43.030;25.108;2023-05-10T04:27:19;99612.94;;;10.76;100.00
21960;BME280;11144;43.030;25.108;2023-05-10T04:28:52;99608.47;;;10.78;100.00
21960;BME280;11144;43.030;25.108;2023-05-10T04:30:25;99610.22;;;10.79;100.00
21960;BME280;11144;43.030;25.108;2023-05-10T04:32:00;99611.72;;;10.86;100.00
21960;BME280;11144;43.030;25.108;2023-05-10T04:33:33;99604.44;;;10.94;100.00
21960;BME280;11144;43.030;25.108;2023-05-10T04:35:07;99611.22;;;11.01;100.00
21960;BME280;11144;43.030;25.108;2023-05-10T04:36:42;99610.09;;;11.08;100.00
21960;BME280;11144;43.030;25.108;2023-05-10T04:38:15;99612.66;;;11.11;100.00
21960;BME280;11144;43.030;25.108;2023-05-10T04:39:48;99610.59;;;11.19;100.00
21960;BME280;11144;43.030;25.108;2023-05-10T04:41:23;99614.78;;;11.26;100.00
21960;BME280;11144;43.030;25.108;2023-05-10T04:42:57;99610.16;;;11.33;100.00
21960;BME280;11144;43.030;25.108;2023-05-10T04:44:30;99613.34;;;11.42;100.00
21960;BME280;11144;43.030;25.108;2023-05-10T04:46:03;99605.19;;;11.48;100.00
21960;BME280;11144;43.030;25.108;2023-05-10T04:47:36;99617.13;;;11.61;100.00
21960;BME280;11144;43.030;25.108;2023-05-10T04:49:09;99610.59;;;11.71;100.00
21960;BME280;11144;43.030;25.108;2023-05-10T04:50:45;99605.97;;;11.76;100.00
21960;BME280;11144;43.030;25.108;2023-05-10T04:52:19;99605.75;;;11.82;100.00
21960;BME280;11144;43.030;25.108;2023-05-10T04:53:52;99604.59;;;11.89;100.00
21960;BME280;11144;43.030;25.108;2023-05-10T04:55:37;99593.63;;;12.00;100.00
21960;BME280;11144;43.030;25.108;2023-05-10T04:57:11;99596.03;;;12.06;100.00
21960;BME280;11144;43.030;25.108;2023-05-10T04:58:45;99601.06;;;12.13;100.00
21960;BME280;11144;43.030;25.108;2023-05-10T05:00:19;99600.84;;;12.19;100.00
21960;BME280;11144;43.030;25.108;2023-05-10T05:01:52;99590.22;;;12.19;100.00
21960;BME280;11144;43.030;25.108;2023-05-10T05:03:26;99597.97;;;12.24;100.00
21960;BME280;11144;43.030;25.108;2023-05-10T05:04:59;99598.63;;;12.30;100.00
21960;BME280;11144;43.030;25.108;2023-05-10T05:06:32;99586.44;;;12.48;100.00
21960;BME280;11144;43.030;25.108;2023-05-10T05:08:05;99593.53;;;12.69;100.00
21960;BME280;11144;43.030;25.108;2023-05-10T05:09:38;99591.34;;;13.01;100.00
21960;BME280;11144;43.030;25.108;2023-05-10T05:11:11;99579.44;;;13.11;100.00
21960;BME280;11144;43.030;25.108;2023-05-10T05:12:46;99590.38;;;13.24;100.00
21960;BME280;11144;43.030;25.108;2023-05-10T05:14:19;99579.59;;;13.48;100.00
21960;BME280;11144;43.030;25.108;2023-05-10T05:15:53;99591.41;;;13.61;100.00
21960;BME280;11144;43.030;25.108;2023-05-10T05:17:26;99576.66;;;13.54;100.00
21960;BME280;11144;43.030;25.108;2023-05-10T05:19:00;99591.25;;;13.64;100.00
21960;BME280;11144;43.030;25.108;2023-05-10T05:20:32;99592.97;;;13.65;100.00
21960;BME280;11144;43.030;25.108;2023-05-10T05:22:06;99587.78;;;13.62;100.00
21960;BME280;11144;43.030;25.108;2023-05-10T05:23:40;99576.03;;;13.68;100.00
21960;BME280;11144;43.030;25.108;2023-05-10T05:25:13;99580.09;;;13.77;100.00
21960;BME280;11144;43.030;25.108;2023-05-10T05:26:47;99570.78;;;13.66;100.00
21960;BME280;11144;43.030;25.108;2023-05-10T05:28:21;99584.06;;;13.66;100.00
21960;BME280;11144;43.030;25.108;2023-05-10T05:29:55;99572.97;;;13.77;100.00
21960;BME280;11144;43.030;25.108;2023-05-10T05:31:28;99580.63;;;13.64;100.00
21960;BME280;11144;43.030;25.108;2023-05-10T05:33:02;99576.25;;;13.63;100.00
21960;BME280;11144;43.030;25.108;2023-05-10T05:34:36;99582.34;;;13.65;100.00
21960;BME280;11144;43.030;25.108;2023-05-10T05:36:09;99576.91;;;13.68;100.00
21960;BME280;11144;43.030;25.108;2023-05-10T05:37:42;99575.72;;;13.76;100.00
21960;BME280;11144;43.030;25.108;2023-05-10T05:39:15;99577.13;;;14.03;100.00
21960;BME280;11144;43.030;25.108;2023-05-10T05:40:49;99580.19;;;14.51;100.00
21960;BME280;11144;43.030;25.108;2023-05-10T05:42:22;99588.94;;;15.07;100.00
21960;BME280;11144;43.030;25.108;2023-05-10T05:43:57;99581.94;;;15.40;100.00
21960;BME280;11144;43.030;25.108;2023-05-10T05:45:30;99582.03;;;15.88;100.00
21960;BME280;11144;43.030;25.108;2023-05-10T05:47:03;99572.94;;;16.24;100.00
21960;BME280;11144;43.030;25.108;2023-05-10T05:48:37;99586.19;;;16.58;100.00
21960;BME280;11144;43.030;25.108;2023-05-10T05:50:10;99577.47;;;16.86;100.00
21960;BME280;11144;43.030;25.108;2023-05-10T05:51:43;99588.06;;;17.03;100.00
21960;BME280;11144;43.030;25.108;2023-05-10T05:53:17;99584.22;;;17.23;100.00
21960;BME280;11144;43.030;25.108;2023-05-10T05:54:51;99582.47;;;17.37;100.00
21960;BME280;11144;43.030;25.108;2023-05-10T05:56:24;99581.69;;;17.35;100.00
21960;BME280;11144;43.030;25.108;2023-05-10T05:57:57;99588.13;;;17.62;100.00
21960;BME280;11144;43.030;25.108;2023-05-10T05:59:32;99574.84;;;17.89;100.00
21960;BME280;11144;43.030;25.108;2023-05-10T06:01:05;99580.72;;;17.95;100.00
21960;BME280;11144;43.030;25.108;2023-05-10T06:02:39;99582.38;;;17.68;100.00
21960;BME280;11144;43.030;25.108;2023-05-10T06:04:12;99583.38;;;17.22;100.00
21960;BME280;11144;43.030;25.108;2023-05-10T06:05:46;99571.31;;;17.15;100.00
21960;BME280;11144;43.030;25.108;2023-05-10T06:07:19;99585.97;;;17.08;100.00
21960;BME280;11144;43.030;25.108;2023-05-10T06:08:53;99579.50;;;16.97;100.00
21960;BME280;11144;43.030;25.108;2023-05-10T06:10:26;99576.59;;;16.85;100.00
21960;BME280;11144;43.030;25.108;2023-05-10T06:12:00;99582.41;;;16.78;100.00
21960;BME280;11144;43.030;25.108;2023-05-10T06:13:33;99583.75;;;16.54;100.00
21960;BME280;11144;43.030;25.108;2023-05-10T06:15:09;99579.25;;;16.23;100.00
21960;BME280;11144;43.030;25.108;2023-05-10T06:16:43;99591.09;;;16.18;100.00
21960;BME280;11144;43.030;25.108;2023-05-10T06:18:16;99574.56;;;16.27;100.00
21960;BME280;11144;43.030;25.108;2023-05-10T06:19:49;99579.88;;;16.11;100.00
21960;BME280;11144;43.030;25.108;2023-05-10T06:21:22;99581.06;;;16.06;100.00
21960;BME280;11144;43.030;25.108;2023-05-10T06:22:56;99581.50;;;16.14;100.00
21960;BME280;11144;43.030;25.108;2023-05-10T06:24:29;99583.75;;;16.06;100.00
21960;BME280;11144;43.030;25.108;2023-05-10T06:26:03;99581.06;;;16.06;100.00
21960;BME280;11144;43.030;25.108;2023-05-10T06:27:36;99575.19;;;16.16;100.00
21960;BME280;11144;43.030;25.108;2023-05-10T06:29:09;99592.47;;;16.25;100.00
21960;BME280;11144;43.030;25.108;2023-05-10T06:30:43;99583.91;;;16.35;100.00
21960;BME280;11144;43.030;25.108;2023-05-10T06:32:17;99581.97;;;16.37;100.00
21960;BME280;11144;43.030;25.108;2023-05-10T06:33:50;99586.16;;;16.43;100.00
21960;BME280;11144;43.030;25.108;2023-05-10T06:35:28;99577.03;;;16.47;100.00
21960;BME280;11144;43.030;25.108;2023-05-10T06:37:01;99577.22;;;16.59;100.00
21960;BME280;11144;43.030;25.108;2023-05-10T06:38:35;99583.69;;;16.71;100.00
21960;BME280;11144;43.030;25.108;2023-05-10T06:40:09;99581.84;;;16.87;100.00
21960;BME280;11144;43.030;25.108;2023-05-10T06:41:42;99579.81;;;16.92;100.00
21960;BME280;11144;43.030;25.108;2023-05-10T06:43:15;99579.59;;;16.95;100.00
21960;BME280;11144;43.030;25.108;2023-05-10T06:44:48;99587.53;;;16.97;100.00
21960;BME280;11144;43.030;25.108;2023-05-10T06:46:23;99583.56;;;17.04;100.00
21960;BME280;11144;43.030;25.108;2023-05-10T06:47:56;99582.72;;;17.03;100.00
21960;BME280;11144;43.030;25.108;2023-05-10T06:49:30;99596.13;;;17.17;100.00
21960;BME280;11144;43.030;25.108;2023-05-10T06:51:03;99588.72;;;17.22;100.00
21960;BME280;11144;43.030;25.108;2023-05-10T06:52:37;99590.25;;;17.26;100.00
21960;BME280;11144;43.030;25.108;2023-05-10T06:54:10;99587.81;;;17.37;100.00
21960;BME280;11144;43.030;25.108;2023-05-10T06:55:43;99581.75;;;17.49;100.00
21960;BME280;11144;43.030;25.108;2023-05-10T06:57:17;99575.88;;;17.58;100.00
21960;BME280;11144;43.030;25.108;2023-05-10T06:59:02;99584.81;;;17.57;100.00
21960;BME280;11144;43.030;25.108;2023-05-10T07:00:36;99579.91;;;17.79;100.00
21960;BME280;11144;43.030;25.108;2023-05-10T07:02:13;99583.78;;;18.03;100.00
21960;BME280;11144;43.030;25.108;2023-05-10T07:03:48;99581.50;;;18.39;100.00
21960;BME280;11144;43.030;25.108;2023-05-10T07:05:22;99582.63;;;18.49;100.00
21960;BME280;11144;43.030;25.108;2023-05-10T07:06:55;99583.94;;;18.70;100.00
21960;BME280;11144;43.030;25.108;2023-05-10T07:08:29;99593.56;;;18.87;100.00
21960;BME280;11144;43.030;25.108;2023-05-10T07:10:03;99586.31;;;19.01;100.00
21960;BME280;11144;43.030;25.108;2023-05-10T07:11:37;99588.69;;;18.79;100.00
21960;BME280;11144;43.030;25.108;2023-05-10T07:13:10;99588.75;;;18.65;100.00
21960;BME280;11144;43.030;25.108;2023-05-10T07:14:43;99587.81;;;18.24;100.00
21960;BME280;11144;43.030;25.108;2023-05-10T07:16:16;99588.94;;;18.06;100.00
21960;BME280;11144;43.030;25.108;2023-05-10T07:17:51;99597.13;;;17.89;100.00
21960;BME280;11144;43.030;25.108;2023-05-10T07:19:24;99587.97;;;17.93;100.00
21960;BME280;11144;43.030;25.108;2023-05-10T07:20:58;99587.41;;;18.02;100.00
21960;BME280;11144;43.030;25.108;2023-05-10T07:22:31;99590.81;;;17.90;100.00
21960;BME280;11144;43.030;25.108;2023-05-10T07:24:04;99591.19;;;17.98;100.00
21960;BME280;11144;43.030;25.108;2023-05-10T07:25:38;99584.91;;;17.99;100.00
21960;BME280;11144;43.030;25.108;2023-05-10T07:27:11;99600.59;;;17.91;100.00
21960;BME280;11144;43.030;25.108;2023-05-10T07:28:45;99592.94;;;17.99;100.00
21960;BME280;11144;43.030;25.108;2023-05-10T07:30:18;99595.63;;;17.99;100.00
21960;BME280;11144;43.030;25.108;2023-05-10T07:31:52;99599.84;;;18.03;100.00
21960;BME280;11144;43.030;25.108;2023-05-10T07:33:30;99604.41;;;18.15;100.00
21960;BME280;11144;43.030;25.108;2023-05-10T07:35:04;99590.47;;;18.10;100.00
21960;BME280;11144;43.030;25.108;2023-05-10T07:36:38;99596.19;;;18.60;100.00
21960;BME280;11144;43.030;25.108;2023-05-10T07:38:11;99595.38;;;19.13;100.00
21960;BME280;11144;43.030;25.108;2023-05-10T07:39:45;99598.91;;;19.27;100.00
21960;BME280;11144;43.030;25.108;2023-05-10T07:41:18;99602.88;;;19.73;100.00
21960;BME280;11144;43.030;25.108;2023-05-10T07:42:52;99591.53;;;20.08;100.00
21960;BME280;11144;43.030;25.108;2023-05-10T07:44:26;99596.91;;;20.08;100.00
21960;BME280;11144;43.030;25.108;2023-05-10T07:45:59;99591.13;;;20.39;100.00
21960;BME280;11144;43.030;25.108;2023-05-10T07:47:33;99592.00;;;20.75;100.00
21960;BME280;11144;43.030;25.108;2023-05-10T07:49:07;99594.00;;;20.97;100.00
21960;BME280;11144;43.030;25.108;2023-05-10T07:50:40;99584.22;;;20.96;100.00
21960;BME280;11144;43.030;25.108;2023-05-10T07:52:14;99589.63;;;21.19;100.00
21960;BME280;11144;43.030;25.108;2023-05-10T07:53:47;99583.47;;;21.41;100.00
21960;BME280;11144;43.030;25.108;2023-05-10T07:55:20;99573.88;;;21.60;100.00
21960;BME280;11144;43.030;25.108;2023-05-10T07:56:54;99580.50;;;21.56;100.00
21960;BME280;11144;43.030;25.108;2023-05-10T07:58:27;99579.19;;;21.38;100.00
21960;BME280;11144;43.030;25.108;2023-05-10T08:00:00;99571.66;;;21.20;100.00
21960;BME280;11144;43.030;25.108;2023-05-10T08:01:44;99580.44;;;20.98;100.00
21960;BME280;11144;43.030;25.108;2023-05-10T08:03:17;99575.34;;;20.83;100.00
21960;BME280;11144;43.030;25.108;2023-05-10T08:04:52;99577.72;;;20.62;100.00
21960;BME280;11144;43.030;25.108;2023-05-10T08:06:25;99567.59;;;20.30;100.00
21960;BME280;11144;43.030;25.108;2023-05-10T08:07:59;99572.31;;;19.88;100.00
21960;BME280;11144;43.030;25.108;2023-05-10T08:09:33;99575.25;;;20.11;100.00
21960;BME280;11144;43.030;25.108;2023-05-10T08:11:06;99571.78;;;20.21;100.00
21960;BME280;11144;43.030;25.108;2023-05-10T08:12:39;99580.50;;;20.25;100.00